createdAt,value
2019-01-11T00:00:08.584Z,0.20
2019-01-11T00:02:41.386Z,0.20
2019-01-11T00:05:12.632Z,0.20
2019-01-11T00:07:43.903Z,0.20
2019-01-11T00:10:16.114Z,0.20
2019-01-11T00:12:47.360Z,0.20
2019-01-11T00:15:18.604Z,0.20
2019-01-11T00:17:49.873Z,0.20
2019-01-11T00:20:21.364Z,0.20
2019-01-11T00:22:52.685Z,0.20
2019-01-11T00:25:23.911Z,0.20
2019-01-11T00:27:55.565Z,0.10
2019-01-11T00:30:26.777Z,0.10
2019-01-11T00:32:58.012Z,0.10
2019-01-11T00:35:29.548Z,0.10
2019-01-11T00:38:00.785Z,0.10
2019-01-11T00:40:32.040Z,0.10
2019-01-11T00:43:03.370Z,0.10
2019-01-11T00:45:34.705Z,0.10
2019-01-11T00:48:05.977Z,0.10
2019-01-11T00:50:37.225Z,0.10
2019-01-11T00:53:08.925Z,0.20
2019-01-11T00:55:40.185Z,0.10
2019-01-11T00:58:11.424Z,0.10
2019-01-11T01:00:42.701Z,0.20
2019-01-11T01:03:13.949Z,0.20
2019-01-11T01:05:45.204Z,0.20
2019-01-11T01:08:16.585Z,0.20
2019-01-11T01:10:47.955Z,0.20
2019-01-11T01:13:19.307Z,0.20
2019-01-11T01:15:50.708Z,0.20
2019-01-11T01:18:22.160Z,0.10
2019-01-11T01:20:53.417Z,0.10
2019-01-11T01:23:24.677Z,0.10
2019-01-11T01:25:56.033Z,0.20
2019-01-11T01:28:27.357Z,0.20
2019-01-11T01:30:58.614Z,0.20
2019-01-11T01:33:29.857Z,0.20
2019-01-11T01:36:01.126Z,0.20
2019-01-11T01:38:32.374Z,0.10
2019-01-11T01:41:03.635Z,0.10
2019-01-11T01:43:34.969Z,0.10
2019-01-11T01:46:06.336Z,0.20
2019-01-11T01:48:37.584Z,0.20
2019-01-11T01:51:08.854Z,0.20
2019-01-11T01:53:40.113Z,0.20
2019-01-11T01:56:11.321Z,0.20
2019-01-11T01:58:42.566Z,0.20
2019-01-11T02:01:13.809Z,0.20
2019-01-11T02:03:45.114Z,0.20
2019-01-11T02:06:16.385Z,0.20
2019-01-11T02:08:47.617Z,0.20
2019-01-11T02:11:18.874Z,0.20
2019-01-11T02:13:50.124Z,0.20
2019-01-11T02:16:21.789Z,0.20
2019-01-11T02:18:53.221Z,0.20
2019-01-11T02:21:24.535Z,0.20
2019-01-11T02:23:55.792Z,0.20
2019-01-11T02:26:27.020Z,0.20
2019-01-11T02:29:01.052Z,0.20
2019-01-11T02:31:32.418Z,0.20
2019-01-11T02:34:03.989Z,0.20
2019-01-11T02:36:35.260Z,0.20
2019-01-11T02:39:08.132Z,0.20
2019-01-11T02:41:39.398Z,0.10
2019-01-11T02:44:10.676Z,0.20
2019-01-11T02:46:41.960Z,0.20
2019-01-11T02:49:13.697Z,0.20
2019-01-11T02:51:44.964Z,0.20
2019-01-11T02:54:16.201Z,0.20
2019-01-11T02:56:47.416Z,0.30
2019-01-11T02:59:18.681Z,0.20
2019-01-11T03:01:49.913Z,0.30
2019-01-11T03:04:21.159Z,0.20
2019-01-11T03:06:52.418Z,0.30
2019-01-11T03:09:23.676Z,0.30
2019-01-11T03:11:55.600Z,0.30
2019-01-11T03:14:26.885Z,0.30
2019-01-11T03:16:58.145Z,0.30
2019-01-11T03:19:29.389Z,0.20
2019-01-11T03:22:00.737Z,0.30
2019-01-11T03:24:31.991Z,0.20
2019-01-11T03:27:03.262Z,0.20
2019-01-11T03:29:34.794Z,0.20
2019-01-11T03:32:06.140Z,0.20
2019-01-11T03:34:44.953Z,0.10
2019-01-11T03:37:16.312Z,0.10
2019-01-11T03:39:47.620Z,0.00
2019-01-11T03:42:18.885Z,0.00
2019-01-11T03:44:50.317Z,0.00
2019-01-11T03:47:21.680Z,0.00
2019-01-11T03:49:54.975Z,0.00
2019-01-11T03:52:26.926Z,0.00
2019-01-11T03:54:58.167Z,0.00
2019-01-11T03:57:29.527Z,0.00
2019-01-11T04:00:00.793Z,0.00
2019-01-11T04:02:32.040Z,0.00
2019-01-11T04:05:03.312Z,0.00
2019-01-11T04:07:34.546Z,0.00
2019-01-11T04:10:07.895Z,0.00
2019-01-11T04:12:39.176Z,0.00
2019-01-11T04:15:11.219Z,0.00
2019-01-11T04:17:42.460Z,0.00
2019-01-11T04:20:16.554Z,0.00
2019-01-11T04:22:53.830Z,0.00
2019-01-11T04:25:29.977Z,0.00
2019-01-11T04:28:04.140Z,0.00
2019-01-11T04:30:35.455Z,0.00
2019-01-11T04:33:06.701Z,0.00
2019-01-11T04:35:37.969Z,0.00
2019-01-11T04:38:09.277Z,0.10
2019-01-11T04:40:40.605Z,0.10
2019-01-11T04:43:11.870Z,0.10
2019-01-11T04:45:43.219Z,0.00
2019-01-11T04:48:14.433Z,0.00
2019-01-11T04:50:45.664Z,0.00
2019-01-11T04:53:16.908Z,0.00
2019-01-11T04:55:48.158Z,0.00
2019-01-11T04:58:19.418Z,0.00
2019-01-11T05:00:50.689Z,0.00
2019-01-11T05:03:21.947Z,0.00
2019-01-11T05:05:53.224Z,0.10
2019-01-11T05:08:24.504Z,0.00
2019-01-11T05:10:55.754Z,0.00
2019-01-11T05:13:37.361Z,0.00
2019-01-11T05:16:08.714Z,0.10
2019-01-11T05:18:39.989Z,0.00
2019-01-11T05:21:11.238Z,0.10
2019-01-11T05:23:42.528Z,0.00
2019-01-11T05:26:13.852Z,0.00
2019-01-11T05:28:45.101Z,0.00
2019-01-11T05:31:19.107Z,0.00
2019-01-11T05:33:50.374Z,0.00
2019-01-11T05:36:21.634Z,0.00
2019-01-11T05:38:52.917Z,0.00
2019-01-11T05:41:24.176Z,0.00
2019-01-11T05:43:55.421Z,0.10
2019-01-11T05:46:26.705Z,0.10
2019-01-11T05:48:57.978Z,0.00
2019-01-11T05:51:29.195Z,0.00
2019-01-11T05:54:00.454Z,0.10
2019-01-11T05:56:32.493Z,0.10
2019-01-11T05:59:08.006Z,0.10
2019-01-11T06:01:39.268Z,0.10
2019-01-11T06:04:29.431Z,0.10
2019-01-11T06:07:28.460Z,0.10
2019-01-11T06:09:59.745Z,0.00
2019-01-11T06:12:31.000Z,0.00
2019-01-11T06:15:02.369Z,0.10
2019-01-11T06:17:33.641Z,0.10
2019-01-11T06:20:06.236Z,0.00
2019-01-11T06:22:37.489Z,0.10
2019-01-11T06:25:08.850Z,0.10
2019-01-11T06:27:40.257Z,0.10
2019-01-11T06:30:13.606Z,0.10
2019-01-11T06:32:45.125Z,0.00
2019-01-11T06:35:16.476Z,0.00
2019-01-11T06:37:47.789Z,0.00
2019-01-11T06:40:19.004Z,0.10
2019-01-11T06:42:50.268Z,0.10
2019-01-11T06:45:21.522Z,0.10
2019-01-11T06:47:53.257Z,0.10
2019-01-11T06:50:24.514Z,0.10
2019-01-11T06:52:55.760Z,0.10
2019-01-11T06:55:27.025Z,0.10
2019-01-11T06:57:58.251Z,0.10
2019-01-11T07:00:29.536Z,0.10
2019-01-11T07:03:00.782Z,0.10
2019-01-11T07:05:32.033Z,0.00
2019-01-11T07:08:03.373Z,0.00
2019-01-11T07:10:34.629Z,0.10
2019-01-11T07:13:06.014Z,0.10
2019-01-11T07:15:37.269Z,0.10
2019-01-11T07:18:08.538Z,0.10
2019-01-11T07:20:42.984Z,0.10
2019-01-11T07:23:12.978Z,0.10
2019-01-11T07:25:44.253Z,0.10
2019-01-11T07:28:15.618Z,0.10
2019-01-11T07:31:04.376Z,0.10
2019-01-11T07:33:35.991Z,0.10
2019-01-11T07:36:33.132Z,0.10
2019-01-11T07:39:13.395Z,0.10
2019-01-11T07:41:44.669Z,0.10
2019-01-11T07:44:15.955Z,0.00
2019-01-11T07:46:47.503Z,0.10
2019-01-11T07:49:23.137Z,0.10
2019-01-11T07:51:51.688Z,0.10
2019-01-11T07:54:22.964Z,0.10
2019-01-11T07:56:55.464Z,0.10
2019-01-11T07:59:26.828Z,0.10
2019-01-11T08:01:58.089Z,0.10
2019-01-11T08:04:29.353Z,0.10
2019-01-11T08:07:00.574Z,0.10
2019-01-11T08:09:31.949Z,0.10
2019-01-11T08:12:04.204Z,0.10
2019-01-11T08:14:35.465Z,0.10
2019-01-11T08:17:06.822Z,0.10
2019-01-11T08:19:38.085Z,0.10
2019-01-11T08:22:11.890Z,0.20
2019-01-11T08:24:46.956Z,0.10
2019-01-11T08:27:18.202Z,0.20
2019-01-11T08:29:49.489Z,0.20
2019-01-11T08:32:20.762Z,0.20
2019-01-11T08:34:52.031Z,0.20
2019-01-11T08:37:23.767Z,0.20
2019-01-11T08:39:55.038Z,0.20
2019-01-11T08:42:26.353Z,0.20
2019-01-11T08:44:59.187Z,0.30
2019-01-11T08:47:30.714Z,0.30
2019-01-11T08:50:02.985Z,0.30
2019-01-11T08:52:34.263Z,0.30
2019-01-11T08:55:06.100Z,0.30
2019-01-11T08:57:37.417Z,0.40
2019-01-11T09:00:10.491Z,0.40
2019-01-11T09:02:41.769Z,0.40
2019-01-11T09:05:14.089Z,0.40
2019-01-11T09:07:45.355Z,0.40
2019-01-11T09:10:22.626Z,0.40
2019-01-11T09:12:49.854Z,0.40
2019-01-11T09:15:21.112Z,0.40
2019-01-11T09:18:09.777Z,0.40
2019-01-11T09:20:41.529Z,0.40
2019-01-11T09:23:12.924Z,0.40
2019-01-11T09:25:44.160Z,0.40
2019-01-11T09:28:15.592Z,0.40
2019-01-11T09:30:46.873Z,0.50
2019-01-11T09:33:20.601Z,0.50
2019-01-11T09:35:50.978Z,0.40
2019-01-11T09:38:23.260Z,0.50
2019-01-11T09:40:54.517Z,0.50
2019-01-11T09:43:27.485Z,0.50
2019-01-11T09:45:59.003Z,0.50
2019-01-11T09:48:30.362Z,0.50
2019-01-11T09:51:03.021Z,0.50
2019-01-11T09:53:34.446Z,0.50
2019-01-11T09:56:05.961Z,0.50
2019-01-11T09:58:37.233Z,0.50
2019-01-11T10:01:08.456Z,0.50
2019-01-11T10:03:39.788Z,0.60
2019-01-11T10:06:11.062Z,0.50
2019-01-11T10:08:42.347Z,0.50
2019-01-11T10:11:14.604Z,0.50
2019-01-11T10:13:46.020Z,0.50
2019-01-11T10:16:17.262Z,0.50
2019-01-11T10:18:48.521Z,0.50
2019-01-11T10:21:23.074Z,0.60
2019-01-11T10:23:52.629Z,0.50
2019-01-11T10:26:24.534Z,0.60
2019-01-11T10:28:55.793Z,0.60
2019-01-11T10:31:27.096Z,0.50
2019-01-11T10:33:58.366Z,0.60
2019-01-11T10:36:29.624Z,0.60
2019-01-11T10:39:00.917Z,0.60
2019-01-11T10:41:33.160Z,0.50
2019-01-11T10:44:05.553Z,0.60
2019-01-11T10:46:38.197Z,0.50
2019-01-11T10:49:09.483Z,0.50
2019-01-11T10:51:40.728Z,0.50
2019-01-11T10:54:20.092Z,0.50
2019-01-11T10:56:51.438Z,0.50
2019-01-11T10:59:22.699Z,0.50
2019-01-11T11:01:55.001Z,0.50
2019-01-11T11:04:26.226Z,0.60
2019-01-11T11:06:57.493Z,0.50
2019-01-11T11:09:28.784Z,0.50
2019-01-11T11:12:00.111Z,0.60
2019-01-11T11:14:31.369Z,0.50
2019-01-11T11:17:02.685Z,0.60
2019-01-11T11:19:33.941Z,0.60
2019-01-11T11:22:05.242Z,0.60
2019-01-11T11:24:36.453Z,0.60
2019-01-11T11:27:07.925Z,0.50
2019-01-11T11:29:39.182Z,0.50
2019-01-11T11:32:12.167Z,0.60
2019-01-11T11:34:46.060Z,0.60
2019-01-11T11:37:18.904Z,0.60
2019-01-11T11:39:51.736Z,0.60
2019-01-11T11:42:23.697Z,0.60
2019-01-11T11:44:54.957Z,0.60
2019-01-11T11:47:26.248Z,0.60
2019-01-11T11:49:57.513Z,0.60
2019-01-11T11:52:28.758Z,0.60
2019-01-11T11:55:00.181Z,0.60
2019-01-11T11:57:31.414Z,0.60
2019-01-11T12:00:02.664Z,0.60
2019-01-11T12:02:33.938Z,0.60
2019-01-11T12:05:06.125Z,0.60
2019-01-11T12:07:37.554Z,0.60
2019-01-11T12:10:10.552Z,0.70
2019-01-11T12:12:41.805Z,0.70
2019-01-11T12:15:14.046Z,0.70
2019-01-11T12:17:45.454Z,0.70
2019-01-11T12:20:21.006Z,0.70
2019-01-11T12:22:52.353Z,0.70
2019-01-11T12:25:23.766Z,0.70
2019-01-11T12:27:55.014Z,0.70
2019-01-11T12:30:26.282Z,0.70
2019-01-11T12:32:57.709Z,0.70
2019-01-11T12:35:28.974Z,0.70
2019-01-11T12:38:00.385Z,0.70
2019-01-11T12:40:31.650Z,0.70
2019-01-11T12:43:03.577Z,0.70
2019-01-11T12:45:34.840Z,0.70
2019-01-11T12:48:06.140Z,0.70
2019-01-11T12:50:37.371Z,0.70
2019-01-11T12:53:08.637Z,0.80
2019-01-11T12:55:41.281Z,0.80
2019-01-11T12:58:12.679Z,0.70
2019-01-11T13:00:43.927Z,0.80
2019-01-11T13:03:16.205Z,0.80
2019-01-11T13:05:47.474Z,0.80
2019-01-11T13:08:18.901Z,0.80
2019-01-11T13:10:50.201Z,0.80
2019-01-11T13:13:21.481Z,0.80
2019-01-11T13:15:53.089Z,0.80
2019-01-11T13:18:24.353Z,0.80
2019-01-11T13:20:55.617Z,0.80
2019-01-11T13:23:26.884Z,0.80
2019-01-11T13:25:59.905Z,0.80
2019-01-11T13:28:31.145Z,0.80
2019-01-11T13:31:02.421Z,0.80
2019-01-11T13:33:33.675Z,0.80
2019-01-11T13:36:11.728Z,0.80
2019-01-11T13:38:43.194Z,0.80
2019-01-11T13:41:14.644Z,0.80
2019-01-11T13:43:46.369Z,0.80
2019-01-11T13:46:17.665Z,0.80
2019-01-11T13:48:48.957Z,0.80
2019-01-11T13:51:20.329Z,0.80
2019-01-11T13:53:51.636Z,0.90
2019-01-11T13:56:22.930Z,0.80
2019-01-11T13:58:54.201Z,0.90
2019-01-11T14:01:25.598Z,0.90
2019-01-11T14:03:56.885Z,0.90
2019-01-11T14:06:28.106Z,0.90
2019-01-11T14:08:59.413Z,0.90
2019-01-11T14:11:30.628Z,0.90
2019-01-11T14:14:01.925Z,0.80
2019-01-11T14:16:33.194Z,0.90
2019-01-11T14:19:04.585Z,0.80
2019-01-11T14:21:35.859Z,0.90
2019-01-11T14:24:07.125Z,0.90
2019-01-11T14:26:41.358Z,0.90
2019-01-11T14:29:12.626Z,0.90
2019-01-11T14:31:44.071Z,0.90
2019-01-11T14:34:15.358Z,0.90
2019-01-11T14:36:47.633Z,0.90
2019-01-11T14:39:18.908Z,0.90
2019-01-11T14:41:50.463Z,0.90
2019-01-11T14:44:21.729Z,0.90
2019-01-11T14:46:53.170Z,0.90
2019-01-11T14:49:24.459Z,0.90
2019-01-11T14:51:55.791Z,0.90
2019-01-11T14:54:27.116Z,0.90
2019-01-11T14:56:58.452Z,0.90
2019-01-11T14:59:29.741Z,0.90
2019-01-11T15:02:00.988Z,0.90
2019-01-11T15:04:32.847Z,1.00
2019-01-11T15:07:04.380Z,1.00
2019-01-11T15:09:35.996Z,0.90
2019-01-11T15:12:07.323Z,1.00
2019-01-11T15:14:38.989Z,0.90
2019-01-11T15:17:10.233Z,0.90
2019-01-11T15:19:41.469Z,0.90
2019-01-11T15:22:12.909Z,0.90
2019-01-11T15:24:44.393Z,0.90
2019-01-11T15:27:16.716Z,0.90
2019-01-11T15:29:47.972Z,0.90
2019-01-11T15:32:19.236Z,0.90
2019-01-11T15:34:50.513Z,1.00
2019-01-11T15:37:21.873Z,1.00
2019-01-11T15:39:54.298Z,1.00
2019-01-11T15:42:26.021Z,1.00
2019-01-11T15:44:57.289Z,1.00
2019-01-11T15:47:28.521Z,1.00
2019-01-11T15:50:00.305Z,1.00
2019-01-11T15:52:33.422Z,1.00
2019-01-11T15:55:05.484Z,1.00
2019-01-11T15:57:42.911Z,1.00
2019-01-11T16:00:18.065Z,1.00
2019-01-11T16:02:49.424Z,1.00
2019-01-11T16:05:20.702Z,1.00
2019-01-11T16:07:51.986Z,1.00
2019-01-11T16:10:23.968Z,1.00
2019-01-11T16:13:32.198Z,1.00
2019-01-11T16:16:24.245Z,1.00
2019-01-11T16:18:57.264Z,1.00
2019-01-11T16:21:30.240Z,1.00
2019-01-11T16:24:01.504Z,1.00
2019-01-11T16:26:32.877Z,1.00
2019-01-11T16:29:04.136Z,1.00
2019-01-11T16:31:37.275Z,1.00
2019-01-11T16:34:09.910Z,1.00
2019-01-11T16:36:41.270Z,1.00
2019-01-11T16:39:12.656Z,1.00
2019-01-11T16:41:43.884Z,1.00
2019-01-11T16:44:15.149Z,1.00
2019-01-11T16:46:46.407Z,1.00
2019-01-11T16:49:18.252Z,1.00
2019-01-11T16:51:49.618Z,1.00
2019-01-11T16:57:10.709Z,1.00
2019-01-11T16:59:42.412Z,1.00
2019-01-11T17:02:13.719Z,1.00
2019-01-11T17:04:44.960Z,1.00
2019-01-11T17:07:17.749Z,1.00
2019-01-11T17:09:49.036Z,1.10
2019-01-11T17:12:20.352Z,1.00
2019-01-11T17:14:51.765Z,1.10
2019-01-11T17:17:23.305Z,1.10
2019-01-11T17:19:55.074Z,1.10
2019-01-11T17:22:26.321Z,1.00
2019-01-11T17:24:57.649Z,1.10
2019-01-11T17:27:28.905Z,1.10
2019-01-11T17:30:02.907Z,1.10
2019-01-11T17:32:34.211Z,1.10
2019-01-11T17:35:05.996Z,1.10
2019-01-11T17:37:37.241Z,1.10
2019-01-11T17:40:09.480Z,1.10
2019-01-11T17:42:40.833Z,1.10
2019-01-11T17:45:13.937Z,1.10
2019-01-11T17:47:45.338Z,1.10
2019-01-11T17:50:18.370Z,1.10
2019-01-11T17:52:49.724Z,1.20
2019-01-11T17:55:21.254Z,1.20
2019-01-11T17:57:52.575Z,1.20
2019-01-11T18:00:23.875Z,1.10
2019-01-11T18:02:55.498Z,1.20
2019-01-11T18:05:26.858Z,1.10
2019-01-11T18:07:59.481Z,1.10
2019-01-11T18:10:31.006Z,1.10
2019-01-11T18:13:03.491Z,1.10
2019-01-11T18:15:34.821Z,1.10
2019-01-11T18:18:06.202Z,1.10
2019-01-11T18:20:37.509Z,1.10
2019-01-11T18:23:10.399Z,1.10
2019-01-11T18:25:41.819Z,1.20
2019-01-11T18:28:13.101Z,1.20
2019-01-11T18:30:45.204Z,1.20
2019-01-11T18:33:16.913Z,1.20
2019-01-11T18:35:48.280Z,1.20
2019-01-11T18:38:19.712Z,1.20
2019-01-11T18:40:51.140Z,1.20
2019-01-11T18:43:22.446Z,1.20
2019-01-11T18:45:53.907Z,1.20
2019-01-11T18:48:25.237Z,1.20
2019-01-11T18:50:56.795Z,1.20
2019-01-11T18:53:28.511Z,1.30
2019-01-11T18:56:05.428Z,1.30
2019-01-11T18:58:32.801Z,1.30
2019-01-11T19:01:04.306Z,1.30
2019-01-11T19:03:35.589Z,1.30
2019-01-11T19:06:07.062Z,1.30
2019-01-11T19:08:39.328Z,1.30
2019-01-11T19:11:10.644Z,1.30
2019-01-11T19:13:41.916Z,1.30
2019-01-11T19:16:13.391Z,1.40
2019-01-11T19:18:47.025Z,1.30
2019-01-11T19:21:18.597Z,1.40
2019-01-11T19:23:50.775Z,1.40
2019-01-11T19:26:23.259Z,1.40
2019-01-11T19:28:54.614Z,1.40
2019-01-11T19:31:26.123Z,1.40
2019-01-11T19:33:57.472Z,1.40
2019-01-11T19:36:28.844Z,1.40
2019-01-11T19:39:00.202Z,1.40
2019-01-11T19:41:31.536Z,1.50
2019-01-11T19:44:03.384Z,1.50
2019-01-11T19:46:34.877Z,1.50
2019-01-11T19:49:07.597Z,1.50
2019-01-11T19:51:38.876Z,1.50
2019-01-11T19:54:10.249Z,1.50
2019-01-11T19:56:41.577Z,1.50
2019-01-11T19:59:13.173Z,1.50
2019-01-11T20:01:44.497Z,1.50
2019-01-11T20:04:16.970Z,1.50
2019-01-11T20:06:50.346Z,1.50
2019-01-11T20:09:21.670Z,1.50
2019-01-11T20:11:53.281Z,1.50
2019-01-11T20:14:24.618Z,1.50
2019-01-11T20:16:56.012Z,1.50
2019-01-11T20:19:27.773Z,1.50
2019-01-11T20:21:59.128Z,1.50
2019-01-11T20:24:31.614Z,1.60
2019-01-11T20:27:02.957Z,1.50
2019-01-11T20:29:34.362Z,1.50
2019-01-11T20:32:05.853Z,1.50
2019-01-11T20:34:37.174Z,1.60
2019-01-11T20:37:26.410Z,1.50
2019-01-11T20:39:57.739Z,1.50
2019-01-11T20:42:29.120Z,1.60
2019-01-11T20:45:00.464Z,1.50
2019-01-11T20:47:31.799Z,1.60
2019-01-11T20:50:03.108Z,1.60
2019-01-11T20:52:34.381Z,1.60
2019-01-11T20:55:07.562Z,1.60
2019-01-11T20:57:39.496Z,1.60
2019-01-11T21:00:31.714Z,1.60
2019-01-11T21:03:04.512Z,1.70
2019-01-11T21:05:37.287Z,1.70
2019-01-11T21:08:09.165Z,1.70
2019-01-11T21:10:40.741Z,1.70
2019-01-11T21:13:14.072Z,1.70
2019-01-11T21:16:00.815Z,1.70
2019-01-11T21:18:33.357Z,1.70
2019-01-11T21:21:09.257Z,1.70
2019-01-11T21:23:49.154Z,1.70
2019-01-11T21:26:25.407Z,1.70
2019-01-11T21:29:03.259Z,1.70
2019-01-11T21:31:39.320Z,1.70
2019-01-11T21:34:18.170Z,1.80
2019-01-11T21:36:55.594Z,1.70
2019-01-11T21:39:48.758Z,1.80
2019-01-11T21:42:21.515Z,1.80
2019-01-11T21:45:11.836Z,1.80
2019-01-11T21:47:59.371Z,1.80
2019-01-11T21:50:39.336Z,1.80
2019-01-11T21:53:24.612Z,1.90
2019-01-11T21:56:08.365Z,1.90
2019-01-11T21:58:44.058Z,1.80
2019-01-11T22:01:18.518Z,1.90
2019-01-11T22:03:57.445Z,1.90
2019-01-11T22:06:41.494Z,1.90
2019-01-11T22:09:21.918Z,1.90
2019-01-11T22:11:56.283Z,1.90
2019-01-11T22:14:36.702Z,1.90
2019-01-11T22:17:16.851Z,1.90
2019-01-11T22:19:50.184Z,2.00
2019-01-11T22:22:33.489Z,1.90
2019-01-11T22:25:07.275Z,1.90
2019-01-11T22:27:48.782Z,2.00
2019-01-11T22:30:30.409Z,2.00
2019-01-11T22:33:09.349Z,2.00
2019-01-11T22:35:43.314Z,2.00
2019-01-11T22:38:25.223Z,2.00
2019-01-11T22:41:01.329Z,2.00
2019-01-11T22:43:48.985Z,2.00
2019-01-11T22:46:25.687Z,2.00
2019-01-11T22:49:02.953Z,2.10
2019-01-11T22:51:40.034Z,2.10
2019-01-11T22:54:19.573Z,2.10
2019-01-11T22:56:56.957Z,2.10
2019-01-11T22:59:30.031Z,2.00
2019-01-11T23:02:29.854Z,2.10
2019-01-11T23:05:12.575Z,2.10
2019-01-11T23:07:55.700Z,2.10
2019-01-11T23:11:10.571Z,2.10
2019-01-11T23:13:45.012Z,2.10
2019-01-11T23:16:34.547Z,2.10
2019-01-11T23:19:09.180Z,2.10
2019-01-11T23:21:46.774Z,2.10
2019-01-11T23:24:19.586Z,2.10
2019-01-11T23:27:01.994Z,2.10
2019-01-11T23:29:38.670Z,2.20
2019-01-11T23:32:16.933Z,2.20
2019-01-11T23:34:54.022Z,2.20
2019-01-11T23:37:29.585Z,2.20
2019-01-11T23:40:03.725Z,2.20
2019-01-11T23:42:43.751Z,2.20
2019-01-11T23:45:19.749Z,2.20
2019-01-11T23:48:01.169Z,2.20
2019-01-11T23:50:32.616Z,2.20
2019-01-11T23:53:03.965Z,2.20
2019-01-11T23:55:36.992Z,2.20
2019-01-11T23:58:08.244Z,2.20
